Time;durP1;ratioP1;P1;durP2;ratioP2;P2;SDS_P1;SDS_P2;PMS_P1;PMS_P2;Temp;Humidity;BMP_temperature;BMP_pressure;BME280_temperature;BME280_humidity;BME280_pressure;Samples;Min_cycle;Max_cycle;Signal;HPM_P1;HPM_P2
2023/10/20 00:01:51;;;;;;;29.23;16.40;;;;;;;-148.15;100.00;61821.78;5006276;28;20064;-90
2023/10/20 00:04:17;;;;;;;29.37;15.30;;;;;;;-148.15;100.00;61821.78;4990940;28;20030;-90
2023/10/20 00:06:42;;;;;;;26.07;15.77;;;;;;;-148.15;100.00;61821.78;4990583;28;20034;-90
2023/10/20 00:09:08;;;;;;;26.83;15.67;;;;;;;-148.15;100.00;61821.78;4991751;28;20109;-90
2023/10/20 00:11:36;;;;;;;33.90;17.52;;;;;;;-148.15;100.00;61821.78;4989500;28;20026;-90
2023/10/20 00:14:01;;;;;;;28.38;17.00;;;;;;;-148.15;100.00;61821.78;4990284;28;20031;-90
2023/10/20 00:16:28;;;;;;;32.17;17.47;;;;;;;-148.15;100.00;61821.78;4989019;28;20023;-90
2023/10/20 00:18:54;;;;;;;29.42;16.92;;;;;;;-148.15;100.00;61821.78;4971672;28;20027;-91
2023/10/20 00:21:19;;;;;;;35.10;17.08;;;;;;;-148.15;100.00;61821.78;4973110;28;20166;-91
2023/10/20 00:23:45;;;;;;;24.87;15.00;;;;;;;-148.15;100.00;61821.78;4990388;28;20101;-90
2023/10/20 00:26:11;;;;;;;29.20;17.47;;;;;;;-148.15;100.00;61821.78;4989628;28;20026;-90
2023/10/20 00:28:36;;;;;;;30.02;17.13;;;;;;;-148.15;100.00;61821.78;4979580;28;20041;-90
2023/10/20 00:31:01;;;;;;;29.60;17.33;;;;;;;-148.15;100.00;61821.78;4969549;28;20085;-90
2023/10/20 00:33:27;;;;;;;27.53;15.87;;;;;;;-148.15;100.00;61821.78;4981966;28;20430;-90
2023/10/20 00:35:53;;;;;;;31.93;17.73;;;;;;;-148.15;100.00;61821.78;4990077;28;20161;-90
2023/10/20 00:38:18;;;;;;;32.55;18.33;;;;;;;-148.15;100.00;61821.78;4991265;28;20037;-89
2023/10/20 00:40:47;;;;;;;33.57;17.20;;;;;;;-148.15;100.00;61821.78;4990910;28;20475;-90
2023/10/20 00:43:13;;;;;;;33.17;17.10;;;;;;;-148.15;100.00;61821.78;4979161;28;20494;-90
2023/10/20 00:45:40;;;;;;;32.35;17.23;;;;;;;-148.15;100.00;61821.78;4978546;28;20046;-90
2023/10/20 00:48:07;;;;;;;31.50;16.38;;;;;;;-148.15;100.00;61821.78;4971617;28;20027;-90
2023/10/20 00:50:33;;;;;;;37.37;17.20;;;;;;;-148.15;100.00;61821.78;4973193;28;20038;-90
2023/10/20 00:53:00;;;;;;;29.03;16.67;;;;;;;-148.15;100.00;61821.78;4977237;28;20433;-90
2023/10/20 00:55:26;;;;;;;35.30;18.73;;;;;;;-148.15;100.00;61821.78;4990576;28;20034;-90
2023/10/20 00:57:53;;;;;;;30.27;17.48;;;;;;;-148.15;100.00;61821.78;4989301;28;20390;-90
2023/10/20 01:00:20;;;;;;;30.55;17.92;;;;;;;-148.15;100.00;61821.78;4990935;28;20052;-90
2023/10/20 01:02:46;;;;;;;32.60;17.75;;;;;;;-148.15;100.00;61821.78;4989366;28;20058;-90
2023/10/20 01:05:15;;;;;;;35.83;18.43;;;;;;;-148.15;100.00;61821.78;4989027;28;20171;-90
2023/10/20 01:07:41;;;;;;;36.67;18.67;;;;;;;-148.15;100.00;61821.78;4990873;28;20775;-90
2023/10/20 01:10:09;;;;;;;32.85;18.15;;;;;;;-148.15;100.00;61821.78;4994031;28;20030;-90
2023/10/20 01:12:35;;;;;;;32.05;18.58;;;;;;;-148.15;100.00;61821.78;4993799;28;20093;-90
2023/10/20 01:15:01;;;;;;;37.53;19.38;;;;;;;-148.15;100.00;61821.78;4989039;28;20026;-90
2023/10/20 01:17:28;;;;;;;35.67;18.13;;;;;;;-148.15;100.00;61821.78;4993139;28;20053;-90
2023/10/20 01:19:53;;;;;;;37.23;19.27;;;;;;;-148.15;100.00;61821.78;4990763;28;20081;-90
2023/10/20 01:22:18;;;;;;;39.93;18.97;;;;;;;-148.15;100.00;61821.78;4989851;28;20277;-90
2023/10/20 01:24:44;;;;;;;36.23;18.17;;;;;;;-148.15;100.00;61821.78;4990878;28;20105;-90
2023/10/20 01:27:09;;;;;;;36.57;18.40;;;;;;;-148.15;100.00;61821.78;4989804;28;20026;-90
2023/10/20 01:29:34;;;;;;;43.30;19.87;;;;;;;-148.15;100.00;61821.78;4985596;28;20106;-90
2023/10/20 01:32:00;;;;;;;39.93;18.53;;;;;;;-148.15;100.00;61821.78;4972479;28;20372;-90
2023/10/20 01:34:25;;;;;;;38.20;18.50;;;;;;;-148.15;100.00;61821.78;4970608;28;20113;-89
2023/10/20 01:36:50;;;;;;;39.10;18.63;;;;;;;-148.15;100.00;61821.78;4970906;28;20061;-90
2023/10/20 01:39:16;;;;;;;42.83;20.70;;;;;;;-148.15;100.00;61821.78;4973455;28;20526;-90
2023/10/20 01:41:41;;;;;;;40.50;19.97;;;;;;;-148.15;100.00;61821.78;4992362;28;20035;-89
2023/10/20 01:44:08;;;;;;;41.00;21.15;;;;;;;-148.15;100.00;61821.78;4993934;28;20060;-89
2023/10/20 01:46:34;;;;;;;43.15;20.10;;;;;;;-148.15;100.00;61821.78;4977724;28;20026;-89
2023/10/20 01:48:59;;;;;;;38.53;19.60;;;;;;;-148.15;100.00;61821.78;4974317;28;20106;-90
2023/10/20 01:51:24;;;;;;;43.47;20.57;;;;;;;-148.15;100.00;61821.78;4980847;28;20026;-90
2023/10/20 01:53:50;;;;;;;45.23;21.07;;;;;;;-148.15;100.00;61821.78;4993884;28;20030;-90
2023/10/20 01:56:15;;;;;;;44.33;20.97;;;;;;;-148.15;100.00;61821.78;4993257;28;20030;-90
2023/10/20 01:58:40;;;;;;;41.80;20.95;;;;;;;-148.15;100.00;61821.78;4992226;28;20037;-90
2023/10/20 02:01:08;;;;;;;43.40;19.20;;;;;;;-148.15;100.00;61821.78;4987971;28;20210;-90
2023/10/20 02:03:33;;;;;;;43.87;20.00;;;;;;;-148.15;100.00;61821.78;4993867;28;20034;-90
2023/10/20 02:05:59;;;;;;;42.10;19.92;;;;;;;-148.15;100.00;61821.78;4992981;28;20030;-90
2023/10/20 02:08:24;;;;;;;42.10;19.53;;;;;;;-148.15;100.00;61821.78;4993397;28;20035;-90
2023/10/20 02:10:50;;;;;;;40.30;20.27;;;;;;;-148.15;100.00;61821.78;4987972;28;20045;-90
2023/10/20 02:13:15;;;;;;;43.33;19.83;;;;;;;-148.15;100.00;61821.78;5037600;23;20052;-90
2023/10/20 02:15:48;;;;;;;42.22;19.85;;;;;;;-148.15;100.00;61821.78;5031475;28;20037;-91
2023/10/20 02:18:14;;;;;;;44.70;22.35;;;;;;;-148.15;100.00;61821.78;5021487;22;20042;-89
2023/10/20 02:20:39;;;;;;;39.30;19.20;;;;;;;-148.15;100.00;61821.78;5011294;28;20459;-90
2023/10/20 02:23:05;;;;;;;33.75;17.13;;;;;;;-148.15;100.00;61821.78;5012760;28;20026;-90
2023/10/20 02:25:31;;;;;;;43.20;19.97;;;;;;;-148.15;100.00;61821.78;5010915;28;20486;-89
2023/10/20 02:27:57;;;;;;;42.05;20.20;;;;;;;-148.15;100.00;61821.78;5004098;28;20038;-90
2023/10/20 02:30:23;;;;;;;34.53;18.27;;;;;;;-148.15;100.00;61821.78;5013989;28;20132;-90
2023/10/20 02:32:48;;;;;;;41.25;19.98;;;;;;;-148.15;100.00;61821.78;5012784;28;20061;-90
2023/10/20 02:35:13;;;;;;;39.87;19.87;;;;;;;-148.15;100.00;61821.78;5012185;28;20057;-90
2023/10/20 02:37:39;;;;;;;36.23;17.53;;;;;;;-148.15;100.00;61821.78;5015519;28;20022;-90
2023/10/20 02:40:05;;;;;;;39.20;18.83;;;;;;;-148.15;100.00;61821.78;5013062;28;20034;-89
2023/10/20 02:42:33;;;;;;;35.53;18.40;;;;;;;-148.15;100.00;61821.78;5011959;28;20527;-90
2023/10/20 02:44:59;;;;;;;33.33;17.13;;;;;;;-148.15;100.00;61821.78;5012342;28;20037;-90
2023/10/20 02:47:27;;;;;;;36.50;19.38;;;;;;;-148.15;100.00;61821.78;5011585;28;20026;-90
2023/10/20 02:49:55;;;;;;;33.77;17.23;;;;;;;-148.15;100.00;61821.78;5011640;28;20038;-90
2023/10/20 02:52:24;;;;;;;40.20;18.42;;;;;;;-148.15;100.00;61821.78;5009694;28;20034;-89
2023/10/20 02:55:01;;;;;;;32.17;17.70;;;;;;;-148.15;100.00;61821.78;5012568;28;20107;-89
2023/10/20 02:57:26;;;;;;;36.17;18.98;;;;;;;-148.15;100.00;61821.78;5012463;28;20155;-90
2023/10/20 02:59:51;;;;;;;40.00;19.00;;;;;;;-148.15;100.00;61821.78;5011659;28;20026;-89
2023/10/20 03:02:18;;;;;;;36.63;18.63;;;;;;;-148.15;100.00;61821.78;5011548;28;20192;-89
2023/10/20 03:04:43;;;;;;;41.97;19.67;;;;;;;-148.15;100.00;61821.78;5013141;28;20118;-89
2023/10/20 03:07:09;;;;;;;39.33;19.10;;;;;;;-148.15;100.00;61821.78;5014428;28;20050;-90
2023/10/20 03:09:35;;;;;;;33.57;18.83;;;;;;;-148.15;100.00;61821.78;5012492;28;20021;-90
2023/10/20 03:12:02;;;;;;;34.05;18.00;;;;;;;-148.15;100.00;61821.78;5012278;28;20033;-90
2023/10/20 03:14:27;;;;;;;42.08;20.50;;;;;;;-148.15;100.00;61821.78;5010842;28;20456;-90
2023/10/20 03:23:51;;;;;;;35.83;18.80;;;;;;;-148.15;100.00;61821.78;5667507;22;20064;-90
2023/10/20 03:26:19;;;;;;;37.25;18.67;;;;;;;-148.15;100.00;61821.78;5050153;28;20411;-90
2023/10/20 03:28:44;;;;;;;39.40;19.17;;;;;;;-148.15;100.00;61821.78;5051804;28;20025;-90
2023/10/20 03:31:10;;;;;;;42.03;19.07;;;;;;;-148.15;100.00;61821.78;5049558;28;20374;-90
2023/10/20 03:33:35;;;;;;;37.27;19.17;;;;;;;-148.15;100.00;61821.78;5062042;28;20419;-90
2023/10/20 03:39:23;;;;;;;38.90;19.05;;;;;;;-148.15;100.00;61821.78;5056504;28;20503;-90
2023/10/20 03:41:50;;;;;;;45.10;20.90;;;;;;;-148.15;100.00;61821.78;5052916;28;20031;-90
2023/10/20 03:44:16;;;;;;;37.42;19.48;;;;;;;-148.15;100.00;61821.78;5071422;28;20024;-90
2023/10/20 03:46:49;;;;;;;40.13;19.40;;;;;;;-148.15;100.00;61821.78;5050901;28;20040;-90
2023/10/20 03:49:15;;;;;;;37.80;19.13;;;;;;;-148.15;100.00;61821.78;5089412;28;20295;-91
2023/10/20 03:52:01;;;;;;;40.75;19.63;;;;;;;-148.15;100.00;61821.78;5088139;28;20028;-90
2023/10/20 03:54:30;;;;;;;41.75;19.17;;;;;;;-148.15;100.00;61821.78;5081802;28;20067;-90
2023/10/20 03:56:57;;;;;;;35.90;19.65;;;;;;;-148.15;100.00;61821.78;5083963;28;20096;-91
2023/10/20 03:59:24;;;;;;;34.88;17.85;;;;;;;-148.15;100.00;61821.78;5071571;28;20028;-91
2023/10/20 04:01:51;;;;;;;35.17;18.77;;;;;;;-148.15;100.00;61821.78;5070709;28;20047;-91
2023/10/20 04:04:17;;;;;;;38.83;19.30;;;;;;;-148.15;100.00;61821.78;5070194;28;20710;-92
2023/10/20 04:06:44;;;;;;;36.28;18.67;;;;;;;-148.15;100.00;61821.78;5070287;28;20030;-91
2023/10/20 04:09:09;;;;;;;40.75;19.45;;;;;;;-148.15;100.00;61821.78;5069665;28;20029;-90
2023/10/20 04:11:36;;;;;;;41.50;19.05;;;;;;;-148.15;100.00;61821.78;5071751;28;20024;-90
2023/10/20 04:14:08;;;;;;;39.60;18.10;;;;;;;-148.15;100.00;61821.78;5067931;28;20033;-91
2023/10/20 04:16:41;;;;;;;41.20;19.03;;;;;;;-148.15;100.00;61821.78;5070335;28;20669;-91
2023/10/20 04:19:12;;;;;;;39.17;19.38;;;;;;;-148.15;100.00;61821.78;5069646;28;20395;-92
2023/10/20 04:21:39;;;;;;;37.50;18.52;;;;;;;-148.15;100.00;61821.78;5057173;28;20463;-92
2023/10/20 04:24:09;;;;;;;42.80;19.67;;;;;;;-148.15;100.00;61821.78;5070134;28;20403;-92
2023/10/20 04:26:36;;;;;;;44.65;21.08;;;;;;;-148.15;100.00;61821.78;5071182;28;20032;-92
2023/10/20 04:58:55;;;;;;;40.23;20.47;;;;;;;-148.15;100.00;61821.78;5049259;28;20669;-90
2023/10/20 05:01:28;;;;;;;46.03;21.70;;;;;;;-148.15;100.00;61821.78;5048110;28;20356;-90
2023/10/20 05:07:08;;;;;;;40.63;20.85;;;;;;;-148.15;100.00;61821.78;4978199;28;20038;-93
2023/10/20 05:09:57;;;;;;;46.83;22.20;;;;;;;-148.15;100.00;61821.78;5051517;28;20048;-92
2023/10/20 05:12:34;;;;;;;43.60;20.48;;;;;;;-148.15;100.00;61821.78;5038410;28;20087;-94
2023/10/20 05:15:00;;;;;;;44.20;21.77;;;;;;;-148.15;100.00;61821.78;5033050;28;20067;-90
2023/10/20 05:17:41;;;;;;;48.60;23.80;;;;;;;-148.15;100.00;61821.78;5062641;28;20674;-91
2023/10/20 05:20:10;;;;;;;48.33;23.63;;;;;;;-148.15;100.00;61821.78;5059929;28;20045;-92
2023/10/20 05:22:35;;;;;;;48.50;23.73;;;;;;;-148.15;100.00;61821.78;5052873;28;20032;-91
2023/10/20 05:25:02;;;;;;;50.80;25.70;;;;;;;-148.15;100.00;61821.78;5054312;28;20774;-91
2023/10/20 05:27:27;;;;;;;42.05;21.50;;;;;;;-148.15;100.00;61821.78;5067326;28;20055;-91
2023/10/20 05:30:11;;;;;;;50.97;25.07;;;;;;;-148.15;100.00;61821.78;5057736;28;20052;-90
2023/10/20 05:32:43;;;;;;;56.00;25.83;;;;;;;-148.15;100.00;61821.78;5053309;28;20829;-91
2023/10/20 05:35:11;;;;;;;54.92;26.98;;;;;;;-148.15;100.00;61821.78;5053213;28;20029;-91
2023/10/20 05:37:36;;;;;;;50.35;27.60;;;;;;;-148.15;100.00;61821.78;5058758;28;20025;-93
2023/10/20 05:40:03;;;;;;;55.23;27.67;;;;;;;-148.15;100.00;61821.78;5052638;28;20551;-90
2023/10/20 05:42:29;;;;;;;57.03;28.40;;;;;;;-148.15;100.00;61821.78;5049753;28;20413;-89
2023/10/20 05:45:09;;;;;;;56.93;27.43;;;;;;;-148.15;100.00;61821.78;5047223;28;20079;-89
2023/10/20 05:47:35;;;;;;;52.47;27.25;;;;;;;-148.15;100.00;61821.78;5052013;28;20033;-90
2023/10/20 05:50:02;;;;;;;50.95;26.98;;;;;;;-148.15;100.00;61821.78;5046338;28;20025;-91
2023/10/20 05:52:28;;;;;;;50.53;27.13;;;;;;;-148.15;100.00;61821.78;5057062;28;20028;-90
2023/10/20 05:54:57;;;;;;;50.87;26.53;;;;;;;-148.15;100.00;61821.78;5061599;28;20063;-90
2023/10/20 05:57:22;;;;;;;51.78;27.08;;;;;;;-148.15;100.00;61821.78;5051449;28;20120;-89
2023/10/20 05:59:48;;;;;;;51.63;26.47;;;;;;;-148.15;100.00;61821.78;5048653;28;20021;-88
2023/10/20 06:02:14;;;;;;;50.22;24.95;;;;;;;-148.15;100.00;61821.78;5051162;28;20119;-88
2023/10/20 06:04:39;;;;;;;46.70;24.07;;;;;;;-148.15;100.00;61821.78;5051372;28;20047;-88
2023/10/20 06:07:04;;;;;;;49.05;24.70;;;;;;;-148.15;100.00;61821.78;5047290;28;20098;-87
2023/10/20 06:09:30;;;;;;;48.40;23.47;;;;;;;-148.15;100.00;61821.78;5052614;28;20036;-87
2023/10/20 06:11:55;;;;;;;45.90;25.52;;;;;;;-148.15;100.00;61821.78;5051506;28;20053;-87
2023/10/20 06:14:21;;;;;;;48.90;24.97;;;;;;;-148.15;100.00;61821.78;5051435;28;20143;-87
2023/10/20 06:16:47;;;;;;;49.83;24.50;;;;;;;-148.15;100.00;61821.78;5036030;28;20017;-87
2023/10/20 06:19:12;;;;;;;48.40;25.63;;;;;;;-148.15;100.00;61821.78;5052694;28;20017;-87
2023/10/20 06:21:42;;;;;;;46.73;25.03;;;;;;;-148.15;100.00;61821.78;5051934;28;20502;-87
2023/10/20 06:24:10;;;;;;;48.45;25.05;;;;;;;-148.15;100.00;61821.78;5033536;28;20072;-87
2023/10/20 06:26:36;;;;;;;41.70;23.30;;;;;;;-148.15;100.00;61821.78;5033773;28;20120;-87
2023/10/20 06:29:02;;;;;;;47.90;24.87;;;;;;;-148.15;100.00;61821.78;5056595;28;20813;-87
2023/10/20 06:31:29;;;;;;;46.20;24.77;;;;;;;-148.15;100.00;61821.78;5052551;28;20033;-87
2023/10/20 06:34:12;;;;;;;46.40;24.70;;;;;;;-148.15;100.00;61821.78;5053199;28;20079;-87
2023/10/20 06:36:46;;;;;;;50.42;25.90;;;;;;;-148.15;100.00;61821.78;5045488;28;20032;-88
2023/10/20 06:39:13;;;;;;;55.10;26.83;;;;;;;-148.15;100.00;61821.78;5053316;28;20026;-88
2023/10/20 06:41:39;;;;;;;50.10;25.90;;;;;;;-148.15;100.00;61821.78;5051041;28;20056;-87
2023/10/20 06:44:04;;;;;;;52.50;27.47;;;;;;;-148.15;100.00;61821.78;5050009;28;20104;-87
2023/10/20 06:46:30;;;;;;;58.33;30.55;;;;;;;-148.15;100.00;61821.78;5050075;28;20029;-87
2023/10/20 06:48:56;;;;;;;53.27;27.83;;;;;;;-148.15;100.00;61821.78;5313924;23;20001;-88
2023/10/20 06:51:21;;;;;;;50.47;27.33;;;;;;;-148.15;100.00;61821.78;5042326;28;20451;-88
2023/10/20 06:53:47;;;;;;;48.63;27.48;;;;;;;-148.15;100.00;61821.78;5030989;28;20041;-89
2023/10/20 06:56:12;;;;;;;50.17;26.50;;;;;;;-148.15;100.00;61821.78;5031888;28;20248;-89
2023/10/20 06:58:37;;;;;;;57.53;29.20;;;;;;;-148.15;100.00;61821.78;5030795;28;20449;-89
2023/10/20 07:01:06;;;;;;;54.47;28.47;;;;;;;-148.15;100.00;61821.78;5034278;28;20029;-88
2023/10/20 07:03:32;;;;;;;65.38;27.92;;;;;;;-148.15;100.00;61821.78;5030719;28;20030;-87
2023/10/20 07:06:01;;;;;;;57.85;28.20;;;;;;;-148.15;100.00;61821.78;5031158;28;20064;-87
2023/10/20 07:08:26;;;;;;;48.47;25.27;;;;;;;-148.15;100.00;61821.78;5014625;28;20412;-87
2023/10/20 07:10:52;;;;;;;72.30;28.43;;;;;;;-148.15;100.00;61821.78;5032084;28;20299;-87
2023/10/20 07:13:17;;;;;;;55.47;27.43;;;;;;;-148.15;100.00;61821.78;5027979;28;20036;-90
2023/10/20 07:15:44;;;;;;;88.32;28.85;;;;;;;-148.15;100.00;61821.78;5032237;28;20036;-91
2023/10/20 07:18:12;;;;;;;83.72;27.13;;;;;;;-148.15;100.00;61821.78;5050826;28;20104;-89
2023/10/20 07:20:40;;;;;;;61.67;27.57;;;;;;;-148.15;100.00;61821.78;5046444;28;20029;-88
2023/10/20 07:23:06;;;;;;;53.77;26.00;;;;;;;-148.15;100.00;61821.78;5036925;28;20428;-87
2023/10/20 07:25:32;;;;;;;48.97;25.80;;;;;;;-148.15;100.00;61821.78;5017037;28;20032;-91
2023/10/20 07:27:57;;;;;;;58.72;26.40;;;;;;;-148.15;100.00;61821.78;5035207;28;20021;-89
2023/10/20 07:30:23;;;;;;;50.70;25.17;;;;;;;-148.15;100.00;61821.78;5029480;28;20029;-88
2023/10/20 07:32:51;;;;;;;52.30;25.13;;;;;;;-148.15;100.00;61821.78;5013732;28;20033;-88
2023/10/20 07:35:16;;;;;;;51.30;26.17;;;;;;;-148.15;100.00;61821.78;5030473;28;20030;-90
2023/10/20 07:37:43;;;;;;;57.65;25.67;;;;;;;-148.15;100.00;61821.78;5028184;28;20366;-89
2023/10/20 07:40:10;;;;;;;46.83;22.23;;;;;;;-148.15;100.00;61821.78;5039997;28;20013;-89
2023/10/20 07:42:42;;;;;;;52.50;23.52;;;;;;;-148.15;100.00;61821.78;5030496;28;20095;-88
2023/10/20 07:45:07;;;;;;;58.47;23.53;;;;;;;-148.15;100.00;61821.78;4999338;28;20458;-88
2023/10/20 07:47:33;;;;;;;61.20;21.67;;;;;;;-148.15;100.00;61821.78;5036010;28;20794;-88
2023/10/20 07:49:59;;;;;;;40.47;22.50;;;;;;;-148.15;100.00;61821.78;5050310;28;20025;-89
2023/10/20 07:52:25;;;;;;;44.63;21.40;;;;;;;-148.15;100.00;61821.78;5035935;28;20053;-89
2023/10/20 07:54:51;;;;;;;39.15;20.88;;;;;;;-148.15;100.00;61821.78;5043525;28;20045;-89
2023/10/20 07:57:18;;;;;;;40.73;20.30;;;;;;;-148.15;100.00;61821.78;5056138;28;20055;-89
2023/10/20 07:59:44;;;;;;;48.33;19.77;;;;;;;-148.15;100.00;61821.78;5041565;28;20099;-90
2023/10/20 08:02:10;;;;;;;39.00;21.40;;;;;;;-148.15;100.00;61821.78;5031188;28;20576;-88
2023/10/20 08:04:36;;;;;;;48.33;18.00;;;;;;;-148.15;100.00;61821.78;5030851;28;20021;-88
2023/10/20 08:07:03;;;;;;;38.25;15.25;;;;;;;-148.15;100.00;61821.78;5032680;28;20051;-87
2023/10/20 08:09:28;;;;;;;47.38;15.68;;;;;;;-148.15;100.00;61821.78;5025748;28;20029;-85
2023/10/20 08:11:54;;;;;;;35.30;16.60;;;;;;;-148.15;100.00;61821.78;5031921;28;20067;-86
2023/10/20 08:14:20;;;;;;;35.17;17.38;;;;;;;-148.15;100.00;61821.78;5029299;28;20061;-86
2023/10/20 08:16:56;;;;;;;37.47;18.93;;;;;;;-148.15;100.00;61821.78;5013523;28;20391;-86
2023/10/20 08:19:21;;;;;;;26.58;14.45;;;;;;;-148.15;100.00;61821.78;5028452;28;20052;-86
2023/10/20 08:21:47;;;;;;;36.57;16.43;;;;;;;-148.15;100.00;61821.78;5018821;28;20025;-86
2023/10/20 08:24:13;;;;;;;38.95;17.02;;;;;;;-148.15;100.00;61821.78;5012620;28;20440;-86
2023/10/20 08:26:39;;;;;;;33.55;14.27;;;;;;;-148.15;100.00;61821.78;5025934;28;20037;-87
2023/10/20 08:29:06;;;;;;;31.73;14.50;;;;;;;-148.15;100.00;61821.78;5031160;28;20440;-88
2023/10/20 08:31:39;;;;;;;32.28;13.93;;;;;;;-148.15;100.00;61821.78;5033161;28;20915;-87
2023/10/20 08:34:05;;;;;;;26.50;14.68;;;;;;;-148.15;100.00;61821.78;5014640;28;20108;-87
2023/10/20 08:36:30;;;;;;;27.00;12.13;;;;;;;-148.15;100.00;61821.78;5030840;28;20387;-87
2023/10/20 08:38:56;;;;;;;26.17;14.20;;;;;;;-148.15;100.00;61821.78;5052771;28;20085;-88
2023/10/20 08:41:23;;;;;;;27.75;13.82;;;;;;;-148.15;100.00;61821.78;5011438;28;20036;-86
2023/10/20 08:43:49;;;;;;;27.45;12.48;;;;;;;-148.15;100.00;61821.78;5020123;28;20040;-86
2023/10/20 08:46:17;;;;;;;34.53;12.88;;;;;;;-148.15;100.00;61821.78;5030349;28;20026;-87
2023/10/20 08:48:47;;;;;;;29.80;12.25;;;;;;;-148.15;100.00;61821.78;5030557;28;20025;-86
2023/10/20 08:51:14;;;;;;;26.93;11.37;;;;;;;-148.15;100.00;61821.78;5029988;28;20033;-85
2023/10/20 08:53:41;;;;;;;20.02;10.52;;;;;;;-148.15;100.00;61821.78;5038775;28;20029;-86
2023/10/20 08:56:08;;;;;;;23.33;10.35;;;;;;;-148.15;100.00;61821.78;5032346;28;20024;-85
2023/10/20 08:58:35;;;;;;;18.50;9.85;;;;;;;-148.15;100.00;61821.78;5009372;28;20037;-86
2023/10/20 09:01:00;;;;;;;15.90;9.02;;;;;;;-148.15;100.00;61821.78;5013001;28;20547;-88
2023/10/20 09:03:43;;;;;;;16.13;8.80;;;;;;;-148.15;100.00;61821.78;5032791;28;20103;-87
2023/10/20 09:06:12;;;;;;;19.45;8.38;;;;;;;-148.15;100.00;61821.78;5050230;28;20490;-87
2023/10/20 09:08:38;;;;;;;13.95;7.60;;;;;;;-148.15;100.00;61821.78;5016111;28;20119;-86
2023/10/20 09:11:07;;;;;;;11.35;6.50;;;;;;;-148.15;100.00;61821.78;5028261;28;20026;-85
2023/10/20 09:13:34;;;;;;;9.50;6.47;;;;;;;-148.15;100.00;61821.78;5012221;28;20059;-85
2023/10/20 09:16:02;;;;;;;9.47;6.13;;;;;;;-148.15;100.00;61821.78;5031125;28;20544;-87
2023/10/20 09:18:28;;;;;;;13.52;6.18;;;;;;;-148.15;100.00;61821.78;5044901;28;20029;-87
2023/10/20 09:21:03;;;;;;;10.33;5.80;;;;;;;-148.15;100.00;61821.78;5050216;28;20520;-86
2023/10/20 09:23:29;;;;;;;9.95;4.95;;;;;;;-148.15;100.00;61821.78;5012812;28;20362;-86
2023/10/20 09:25:54;;;;;;;11.13;4.97;;;;;;;-148.15;100.00;61821.78;5028103;28;20067;-87
2023/10/20 09:28:20;;;;;;;9.83;4.60;;;;;;;-148.15;100.00;61821.78;5047205;28;20090;-86
2023/10/20 09:30:48;;;;;;;5.90;4.33;;;;;;;-148.15;100.00;61821.78;5037599;28;20025;-87
2023/10/20 09:33:13;;;;;;;6.68;4.60;;;;;;;-148.15;100.00;61821.78;5030087;28;20039;-87
2023/10/20 09:35:41;;;;;;;7.10;4.57;;;;;;;-148.15;100.00;61821.78;5038944;28;20487;-87
2023/10/20 09:38:14;;;;;;;9.40;4.28;;;;;;;-148.15;100.00;61821.78;5029932;28;20030;-87
2023/10/20 09:40:42;;;;;;;6.67;4.67;;;;;;;-148.15;100.00;61821.78;5032781;28;20121;-87
2023/10/20 09:43:28;;;;;;;12.75;4.53;;;;;;;-148.15;100.00;61821.78;5028743;28;20168;-86
2023/10/20 09:46:14;;;;;;;5.82;4.13;;;;;;;-148.15;100.00;61821.78;5029226;28;20038;-86
2023/10/20 09:48:40;;;;;;;6.75;4.15;;;;;;;-148.15;100.00;61821.78;5029402;28;20112;-84
2023/10/20 09:51:08;;;;;;;5.85;4.20;;;;;;;-148.15;100.00;61821.78;5081913;23;20067;-86
2023/10/20 09:53:40;;;;;;;5.85;4.55;;;;;;;-148.15;100.00;61821.78;5071338;28;20036;-84
2023/10/20 09:56:06;;;;;;;3.70;3.27;;;;;;;-148.15;100.00;61821.78;5088405;28;20023;-85
2023/10/20 09:58:44;;;;;;;6.07;4.15;;;;;;;-148.15;100.00;61821.78;5089050;28;20107;-85
2023/10/20 10:01:53;;;;;;;5.60;4.10;;;;;;;-148.15;100.00;61821.78;5064657;28;20020;-86
2023/10/20 10:04:28;;;;;;;5.97;4.15;;;;;;;-148.15;100.00;61821.78;5095448;28;20055;-86
2023/10/20 10:06:55;;;;;;;6.90;4.78;;;;;;;-148.15;100.00;61821.78;5089630;28;20024;-86
2023/10/20 10:09:21;;;;;;;5.23;4.30;;;;;;;-148.15;100.00;61821.78;5092470;28;20489;-86
2023/10/20 10:12:07;;;;;;;5.97;4.23;;;;;;;-148.15;100.00;61821.78;5093200;28;20326;-85
2023/10/20 10:18:10;;;;;;;5.88;4.28;;;;;;;-148.15;100.00;61821.78;5081285;28;20054;-85
2023/10/20 10:25:47;;;;;;;5.90;4.47;;;;;;;-148.15;100.00;61821.78;5168469;22;20052;-86
2023/10/20 10:28:22;;;;;;;7.55;3.45;;;;;;;-148.15;100.00;61821.78;5042246;28;20029;-87
2023/10/20 10:30:56;;;;;;;4.10;3.80;;;;;;;-148.15;100.00;61821.78;5044340;28;20028;-86
2023/10/20 10:33:40;;;;;;;4.20;3.90;;;;;;;-148.15;100.00;61821.78;5063367;28;20051;-86
2023/10/20 10:36:09;;;;;;;4.22;3.80;;;;;;;-148.15;100.00;61821.78;5034823;28;20392;-87
2023/10/20 10:38:45;;;;;;;7.47;3.90;;;;;;;-148.15;100.00;61821.78;5047934;28;20092;-87
2023/10/20 10:41:24;;;;;;;4.70;4.20;;;;;;;-148.15;100.00;61821.78;5035255;28;20279;-86
2023/10/20 10:43:55;;;;;;;4.95;4.45;;;;;;;-148.15;100.00;61821.78;5062997;28;20020;-86
2023/10/20 10:46:33;;;;;;;7.05;5.10;;;;;;;-148.15;100.00;61821.78;5072142;28;20028;-86
2023/10/20 10:49:23;;;;;;;6.25;5.65;;;;;;;-148.15;100.00;61821.78;5072725;28;20117;-85
2023/10/20 10:51:50;;;;;;;7.22;5.18;;;;;;;-148.15;100.00;61821.78;5071870;28;20488;-85
2023/10/20 10:54:23;;;;;;;9.57;5.63;;;;;;;-148.15;100.00;61821.78;5069644;28;20046;-86
2023/10/20 10:56:52;;;;;;;9.63;3.83;;;;;;;-148.15;100.00;61821.78;5055219;28;20291;-86
2023/10/20 10:59:20;;;;;;;5.03;4.63;;;;;;;-148.15;100.00;61821.78;5063533;28;20384;-85
2023/10/20 11:01:46;;;;;;;6.28;5.75;;;;;;;-148.15;100.00;61821.78;5062047;28;20031;-87
2023/10/20 11:04:12;;;;;;;6.55;5.95;;;;;;;-148.15;100.00;61821.78;5072694;28;20021;-89
2023/10/20 11:06:38;;;;;;;7.55;6.85;;;;;;;-148.15;100.00;61821.78;5073344;28;20032;-89
2023/10/20 11:11:58;;;;;;;9.17;8.37;;;;;;;-148.15;100.00;61821.78;5432952;22;20368;-87
2023/10/20 11:18:20;;;;;;;8.65;7.85;;;;;;;-148.15;100.00;61821.78;5055112;28;20072;-89
2023/10/20 11:20:47;;;;;;;13.57;9.38;;;;;;;-148.15;100.00;61821.78;5068087;28;20024;-89
2023/10/20 11:23:14;;;;;;;11.70;10.48;;;;;;;-148.15;100.00;61821.78;5068752;28;20161;-87
2023/10/20 11:25:43;;;;;;;12.80;11.30;;;;;;;-148.15;100.00;61821.78;5051060;28;20029;-88
2023/10/20 11:31:06;;;;;;;13.60;12.20;;;;;;;-148.15;100.00;61821.78;5068050;22;20060;-86
2023/10/20 11:34:10;;;;;;;14.27;12.57;;;;;;;-148.15;100.00;61821.78;5038382;28;20049;-88
2023/10/20 11:36:35;;;;;;;14.40;12.90;;;;;;;-148.15;100.00;61821.78;4974703;28;20735;-89
2023/10/20 11:42:11;;;;;;;16.98;14.10;;;;;;;-148.15;100.00;61821.78;5304809;22;20037;-90
2023/10/20 11:44:41;;;;;;;18.17;15.70;;;;;;;-148.15;100.00;61821.78;5033897;28;20086;-89
2023/10/20 11:47:14;;;;;;;17.20;15.40;;;;;;;-148.15;100.00;61821.78;5017398;28;20040;-90
2023/10/20 11:49:54;;;;;;;19.13;16.20;;;;;;;-148.15;100.00;61821.78;5002966;28;20026;-90
2023/10/20 11:52:22;;;;;;;17.95;14.48;;;;;;;-148.15;100.00;61821.78;4995594;28;20031;-89
2023/10/20 11:55:21;;;;;;;21.48;17.10;;;;;;;-148.15;100.00;61821.78;5009175;28;20053;-91
2023/10/20 11:57:47;;;;;;;19.25;15.38;;;;;;;-148.15;100.00;61821.78;4997205;28;20389;-88
2023/10/20 12:00:15;;;;;;;16.13;14.30;;;;;;;-148.15;100.00;61821.78;5021301;28;20089;-91
2023/10/20 12:02:42;;;;;;;19.90;16.35;;;;;;;-148.15;100.00;61821.78;5015859;28;20026;-90
2023/10/20 12:05:18;;;;;;;19.08;17.17;;;;;;;-148.15;100.00;61821.78;5027529;28;20120;-90
2023/10/20 12:08:08;;;;;;;19.40;17.33;;;;;;;-148.15;100.00;61821.78;5008557;28;20034;-91